Presto, Pennsylvania
Current Conditions -  °F | °C
As of 7:53 AM on Friday 28 Nov 2014 (Local Time) from KAGC Reporting Station
Overcast Overcast  
Wind Chill: 12°   Ceiling: 4800
Heat Index: 24°   Visibility: 10mi
Dew Point: 12°   Wind: 13mph
Humidity: 60%   Direction: 310°NW
Pressure: 30.29"   Gusts: 21mph
Location:  40.37°N, 80.12°W
Report Text: KAGC 281253Z AUTO 31011G18KT 10SM OVC048 M04/M11 A3029 RMK AO2 SLP278 T10441111 TSNO
Loading
Personal Weather Stations






























Interactive Weather Map New forecast layout! Learn more

10-Day Weather Forecast

Advertisements
Track Severe Weather on mobile